CYBD

Bella Coola  Airport

Bella Coola, British Columbia, Canada

CYBD 220100Z 03010KT 2SM -SHRAPLSN FEW009 BKN012 OVC019 01/00 A2970 RMK SF1SC5SC3 SF TR CVCTV CLD EMBD LAST OBS/NEXT 221500UTC/ SLP060

Observed Flight Rules
Nov-22 @ 01:00 UTC (6 hours ago)
 
Instrument Flight Rules
Wind Visibility Clouds Conditions
30° at 10 knots 2 miles
  • Few at 900' AGL
  • Broken at 1,200' AGL
  • Overcast at 1,900' AGL
  • Light Rain
Temperatures Readings
Current 1°C / 34°F
Dewpoint 0°C / 32°F
Humidity 93%
Altimeter 29.7" Hg
Pressure 1006 hPa
Elevation 35
Observed Flight Rules
Nov-22 @ 01:00 UTC
(6 hours ago)
 
IFR
Wind Visibility
30° at 10 knots 2 miles
Clouds
  • Few at 900' AGL
  • Broken at 1,200' AGL
  • Overcast at 1,900' AGL
Conditions
  • Light Rain
Temperature Dewpoint
1°C / 34°F 0°C / 32°F
Humidity Altimeter Pressure
93% 29.7" Hg 1006 hPa